TAF and METAR

No METAR available for Inca Manco Capac Airport

TAF for Inca Manco Capac Airport

TAF SPJL 281400Z 2812/2912 03005KT CAVOK TX16/2819Z TMN05/2910Z FM281930 10006KT CAVOK FM282300 VRB05KT CAVOK
Report created 28. mai 16:00

between 28. mai 14:00 - 29. mai 14:00

wind 5 knots from NNE (030°) Clear sky Max temperature 16° expected today at around 21 o'clock